Time;durP1;ratioP1;P1;durP2;ratioP2;P2;SDS_P1;SDS_P2;PMS_P1;PMS_P2;Temp;Humidity;BMP_temperature;BMP_pressure;BME280_temperature;BME280_humidity;BME280_pressure;Samples;Min_cycle;Max_cycle;Signal;HPM_P1;HPM_P2
2023/04/07 05:00:41;;;;;;;8.50;7.67;;;9.60;97.20;;;;;;1712859;28;20615;-67
2023/04/07 05:01:32;;;;;;;8.38;7.50;;;9.60;97.20;;;;;;1713368;28;20202;-67
2023/04/07 05:02:23;;;;;;;9.07;8.27;;;9.60;97.20;;;;;;1713229;28;20201;-67
2023/04/07 05:03:14;;;;;;;10.20;9.30;;;9.60;97.20;;;;;;1713284;28;20205;-67
2023/04/07 05:04:08;;;;;;;9.83;8.93;;;9.60;97.20;;;;;;1707032;28;20209;-67
2023/04/07 05:04:58;;;;;;;10.40;9.40;;;9.60;97.20;;;;;;1706757;29;20458;-67
2023/04/07 05:05:50;;;;;;;10.07;9.10;;;9.60;97.20;;;;;;1703868;28;20691;-67
2023/04/07 05:06:41;;;;;;;9.45;8.65;;;9.60;97.20;;;;;;1706503;28;20230;-66
2023/04/07 05:07:32;;;;;;;10.33;9.10;;;9.60;97.20;;;;;;1706035;28;20208;-67
2023/04/07 05:08:23;;;;;;;9.95;8.95;;;9.60;97.20;;;;;;1708062;28;20220;-67
2023/04/07 05:09:16;;;;;;;9.17;8.27;;;9.60;97.20;;;;;;1706783;28;20217;-67
2023/04/07 05:10:08;;;;;;;8.98;8.07;;;9.60;97.20;;;;;;1712855;28;20201;-67
2023/04/07 05:10:59;;;;;;;11.00;8.93;;;9.60;97.20;;;;;;1707524;28;20269;-67
2023/04/07 05:11:50;;;;;;;9.88;8.98;;;9.60;97.20;;;;;;1706515;29;20766;-67
2023/04/07 05:12:42;;;;;;;10.00;9.00;;;9.60;97.20;;;;;;1706431;29;20609;-67
2023/04/07 05:13:33;;;;;;;10.23;8.93;;;9.60;97.20;;;;;;1706873;29;20245;-67
2023/04/07 05:14:25;;;;;;;9.77;8.85;;;9.60;97.20;;;;;;1706923;29;20548;-67
2023/04/07 05:15:15;;;;;;;11.68;10.10;;;9.60;97.20;;;;;;1706626;29;20306;-67
2023/04/07 05:16:09;;;;;;;9.97;9.07;;;9.60;97.20;;;;;;1706142;29;20201;-67
2023/04/07 05:17:00;;;;;;;9.45;8.55;;;9.50;97.20;;;;;;1706699;29;20667;-67
2023/04/07 05:17:51;;;;;;;9.93;8.93;;;9.50;97.20;;;;;;1706350;28;20580;-67
2023/04/07 05:18:42;;;;;;;9.35;8.20;;;9.50;97.20;;;;;;1711705;28;20448;-67
2023/04/07 05:19:34;;;;;;;9.90;9.00;;;9.50;97.20;;;;;;1709413;28;20209;-67
2023/04/07 05:20:25;;;;;;;9.48;8.57;;;9.50;97.20;;;;;;1710445;28;20265;-67
2023/04/07 05:21:19;;;;;;;9.30;8.40;;;9.50;97.20;;;;;;1706462;29;20229;-67
2023/04/07 05:22:09;;;;;;;9.40;8.60;;;9.50;97.20;;;;;;1700186;29;20447;-67
2023/04/07 05:23:01;;;;;;;9.43;8.50;;;9.50;97.20;;;;;;1700092;29;20653;-67
2023/04/07 05:23:52;;;;;;;10.75;9.75;;;9.40;97.20;;;;;;1703457;29;20198;-67
2023/04/07 05:24:44;;;;;;;9.40;8.50;;;9.50;97.20;;;;;;1706790;29;20293;-66
2023/04/07 05:25:35;;;;;;;10.18;9.27;;;9.50;97.20;;;;;;1706844;29;20218;-67
2023/04/07 05:26:27;;;;;;;9.07;8.23;;;9.50;97.20;;;;;;1706699;29;20202;-66
2023/04/07 05:27:17;;;;;;;9.85;9.00;;;9.50;97.20;;;;;;1706640;29;20238;-66
2023/04/07 05:28:09;;;;;;;9.93;8.93;;;9.50;97.20;;;;;;1706828;28;20217;-67
2023/04/07 05:29:00;;;;;;;10.40;9.30;;;9.50;97.20;;;;;;1711514;28;20205;-67
2023/04/07 05:29:52;;;;;;;9.13;8.23;;;9.50;97.20;;;;;;1711477;28;20194;-67
2023/04/07 05:30:42;;;;;;;9.63;8.73;;;9.60;97.20;;;;;;1713298;28;20265;-66
2023/04/07 05:31:36;;;;;;;9.33;8.53;;;9.60;97.20;;;;;;1713409;28;20202;-66
2023/04/07 05:32:27;;;;;;;10.00;9.00;;;9.50;97.20;;;;;;1713443;28;20240;-66
2023/04/07 05:33:20;;;;;;;10.20;9.20;;;9.50;97.20;;;;;;1713106;28;20237;-66
2023/04/07 05:34:11;;;;;;;10.07;9.15;;;9.50;97.20;;;;;;1713407;28;20241;-66
2023/04/07 05:35:03;;;;;;;9.90;9.00;;;9.50;97.20;;;;;;1713597;28;20216;-66
2023/04/07 05:35:53;;;;;;;9.93;9.02;;;9.50;97.20;;;;;;1713333;28;20206;-69
2023/04/07 05:36:45;;;;;;;10.20;9.20;;;9.50;97.20;;;;;;1713420;28;20284;-69
2023/04/07 05:37:36;;;;;;;9.82;8.82;;;9.50;97.20;;;;;;1712789;28;20213;-69
2023/04/07 05:38:27;;;;;;;9.67;8.70;;;9.50;97.20;;;;;;1709751;28;20198;-69
2023/04/07 05:39:18;;;;;;;10.98;9.68;;;9.50;97.20;;;;;;1709195;28;20205;-69
2023/04/07 05:40:11;;;;;;;10.17;9.27;;;9.50;97.20;;;;;;1713412;28;20194;-69
2023/04/07 05:41:01;;;;;;;9.48;8.57;;;9.50;97.20;;;;;;1713377;28;20296;-69
2023/04/07 05:41:53;;;;;;;9.17;8.27;;;9.60;97.20;;;;;;1713481;28;20276;-67
2023/04/07 05:42:44;;;;;;;9.38;8.48;;;9.60;97.20;;;;;;1706389;28;20203;-66
2023/04/07 05:43:36;;;;;;;10.30;9.30;;;9.60;97.20;;;;;;1706795;29;20209;-66
2023/04/07 05:44:26;;;;;;;9.63;8.73;;;9.60;97.20;;;;;;1706697;29;21034;-66
2023/04/07 05:45:18;;;;;;;9.70;8.90;;;9.60;97.20;;;;;;1702305;28;20694;-66
2023/04/07 05:46:09;;;;;;;9.95;8.95;;;9.60;97.20;;;;;;1700087;29;20662;-68
2023/04/07 05:47:04;;;;;;;10.33;9.30;;;9.60;97.20;;;;;;1700080;29;20654;-67
2023/04/07 05:47:55;;;;;;;9.20;8.30;;;9.60;97.20;;;;;;1703105;28;20666;-69
2023/04/07 05:48:47;;;;;;;9.77;8.87;;;9.60;97.20;;;;;;1711298;28;20537;-69
2023/04/07 05:49:44;;;;;;;9.90;8.43;;;9.60;97.20;;;;;;1709049;28;20734;-69
2023/04/07 05:50:36;;;;;;;10.00;8.98;;;9.60;97.20;;;;;;1713242;28;20261;-67
2023/04/07 05:51:27;;;;;;;9.43;8.57;;;9.60;97.20;;;;;;1713171;28;20373;-66
2023/04/07 05:52:18;;;;;;;9.63;8.73;;;9.60;97.20;;;;;;1713209;28;20251;-66
2023/04/07 05:53:09;;;;;;;9.65;8.75;;;9.60;97.20;;;;;;1713055;28;20448;-66
2023/04/07 05:54:02;;;;;;;9.37;8.37;;;9.60;97.20;;;;;;1713174;28;20201;-66
2023/04/07 05:54:53;;;;;;;9.45;8.55;;;9.60;97.20;;;;;;1713171;28;20209;-67
2023/04/07 05:55:45;;;;;;;10.10;9.10;;;9.60;97.20;;;;;;1713220;28;20201;-67
2023/04/07 05:56:36;;;;;;;10.18;9.18;;;9.60;97.20;;;;;;1713141;28;20240;-66
2023/04/07 05:57:28;;;;;;;10.63;9.63;;;9.70;97.20;;;;;;1713269;28;20213;-66
2023/04/07 05:58:19;;;;;;;10.70;9.68;;;9.70;97.20;;;;;;1708719;28;20245;-67
2023/04/07 05:59:10;;;;;;;10.10;9.10;;;9.70;97.20;;;;;;1709684;28;20203;-66
2023/04/07 06:00:02;;;;;;;11.65;10.45;;;9.70;97.20;;;;;;1711615;28;20205;-66
2023/04/07 06:00:54;;;;;;;11.45;10.25;;;9.70;97.20;;;;;;1706461;29;20310;-67
2023/04/07 06:01:45;;;;;;;13.23;11.88;;;9.70;97.20;;;;;;1706746;29;20326;-66
2023/04/07 06:02:38;;;;;;;13.85;12.45;;;9.70;97.20;;;;;;1706195;29;20298;-67
2023/04/07 06:03:30;;;;;;;14.27;12.00;;;9.80;97.20;;;;;;1706746;29;20686;-66
2023/04/07 06:04:21;;;;;;;13.38;12.18;;;9.80;97.20;;;;;;1706566;29;20210;-66
2023/04/07 06:05:12;;;;;;;13.93;12.43;;;9.80;97.20;;;;;;1706578;29;20240;-66
2023/04/07 06:06:04;;;;;;;13.03;11.73;;;9.80;97.20;;;;;;1706552;28;20203;-66
2023/04/07 06:06:55;;;;;;;12.05;10.95;;;9.80;97.20;;;;;;1706428;29;20449;-67
2023/04/07 06:07:47;;;;;;;14.80;10.50;;;9.90;97.20;;;;;;1706309;29;20257;-66
2023/04/07 06:08:37;;;;;;;11.15;9.93;;;9.90;97.20;;;;;;1706932;28;20229;-66
2023/04/07 06:09:29;;;;;;;9.90;9.00;;;9.90;97.20;;;;;;1707942;28;20218;-67
2023/04/07 06:10:20;;;;;;;10.10;9.10;;;9.90;97.20;;;;;;1713147;28;20213;-66
2023/04/07 06:11:12;;;;;;;10.10;9.18;;;10.00;97.20;;;;;;1713226;28;20690;-69
2023/04/07 06:12:04;;;;;;;10.45;9.45;;;10.00;97.20;;;;;;1713158;28;20247;-69
2023/04/07 06:12:55;;;;;;;8.70;7.90;;;10.00;97.20;;;;;;1713023;28;20206;-66
2023/04/07 06:13:46;;;;;;;8.73;7.93;;;10.00;97.20;;;;;;1713289;28;20668;-66
2023/04/07 06:14:38;;;;;;;9.03;8.17;;;10.00;97.20;;;;;;1713990;28;20620;-66
2023/04/07 06:15:29;;;;;;;8.10;7.32;;;10.00;97.20;;;;;;1714507;28;20590;-66
2023/04/07 06:16:20;;;;;;;9.93;8.70;;;10.00;97.20;;;;;;1704495;28;20218;-66
2023/04/07 06:17:11;;;;;;;9.77;8.80;;;10.10;97.20;;;;;;1701105;29;20211;-67
2023/04/07 06:18:04;;;;;;;9.73;8.07;;;10.10;97.20;;;;;;1705041;28;20206;-66
2023/04/07 06:18:55;;;;;;;9.63;8.77;;;10.10;97.20;;;;;;1706907;28;20748;-66
2023/04/07 06:19:47;;;;;;;8.40;7.70;;;10.10;97.20;;;;;;1711791;28;20578;-66
2023/04/07 06:20:38;;;;;;;8.55;7.70;;;10.00;97.20;;;;;;1714195;28;20850;-66
2023/04/07 06:21:30;;;;;;;9.17;8.33;;;10.00;97.20;;;;;;1714451;28;20216;-67
2023/04/07 06:22:21;;;;;;;9.00;8.20;;;10.00;97.20;;;;;;1714389;28;20237;-67
2023/04/07 06:23:12;;;;;;;8.90;8.10;;;10.10;97.20;;;;;;1714170;28;20202;-66
2023/04/07 06:24:03;;;;;;;8.23;7.53;;;10.00;97.20;;;;;;1714457;28;20209;-66
2023/04/07 06:24:55;;;;;;;10.50;9.50;;;10.10;97.20;;;;;;1714360;28;20202;-66
2023/04/07 06:25:50;;;;;;;9.82;8.93;;;10.10;97.20;;;;;;1709280;28;20838;-67
2023/04/07 06:26:42;;;;;;;12.20;9.45;;;10.10;97.20;;;;;;1707812;29;20207;-66
2023/04/07 06:27:33;;;;;;;10.02;9.07;;;10.10;97.20;;;;;;1707616;29;20218;-67
2023/04/07 06:28:24;;;;;;;10.40;9.50;;;10.10;97.20;;;;;;1710247;28;20208;-67
2023/04/07 06:29:16;;;;;;;9.65;8.75;;;10.10;97.20;;;;;;1710620;28;20218;-67
2023/04/07 06:30:09;;;;;;;10.30;9.32;;;10.10;97.20;;;;;;1708540;28;20226;-66
2023/04/07 06:31:00;;;;;;;10.55;9.45;;;10.10;97.20;;;;;;1707285;29;20365;-67
2023/04/07 06:31:51;;;;;;;9.17;8.27;;;10.10;97.20;;;;;;1707740;29;20257;-66
2023/04/07 06:32:42;;;;;;;9.80;8.90;;;10.10;97.20;;;;;;1704101;29;20552;-66
2023/04/07 06:33:35;;;;;;;9.63;8.73;;;10.10;97.20;;;;;;1701012;29;20570;-66
2023/04/07 06:34:26;;;;;;;8.90;8.10;;;10.20;97.20;;;;;;1701193;29;20800;-66
2023/04/07 06:35:18;;;;;;;10.10;9.20;;;10.20;97.20;;;;;;1701042;29;20229;-66
2023/04/07 06:36:08;;;;;;;10.10;9.20;;;10.20;97.20;;;;;;1701001;29;20235;-66
2023/04/07 06:37:01;;;;;;;10.43;9.43;;;10.20;97.20;;;;;;1701181;29;20203;-67
2023/04/07 06:37:52;;;;;;;10.00;9.02;;;10.20;97.20;;;;;;1703371;28;20211;-66
2023/04/07 06:38:43;;;;;;;10.10;9.10;;;10.30;97.20;;;;;;1712705;28;20242;-66
2023/04/07 06:39:34;;;;;;;9.65;8.75;;;10.30;97.20;;;;;;1710162;28;20202;-66
2023/04/07 06:40:26;;;;;;;10.47;9.40;;;10.30;97.20;;;;;;1714156;28;20292;-67
2023/04/07 06:41:17;;;;;;;11.13;10.13;;;10.30;97.20;;;;;;1714158;28;20260;-67
2023/04/07 06:42:08;;;;;;;10.13;9.20;;;10.30;97.20;;;;;;1714252;28;20202;-67
2023/04/07 06:42:59;;;;;;;10.55;9.45;;;10.30;97.20;;;;;;1714017;28;20208;-67
2023/04/07 06:43:51;;;;;;;10.10;9.10;;;10.30;97.20;;;;;;1714265;28;20197;-67
2023/04/07 06:44:42;;;;;;;9.30;8.50;;;10.30;97.20;;;;;;1714193;28;20210;-66
2023/04/07 06:45:34;;;;;;;9.52;8.63;;;10.30;97.20;;;;;;1714213;28;20213;-66
2023/04/07 06:46:25;;;;;;;9.18;8.35;;;10.30;97.20;;;;;;1714277;28;20714;-66
2023/04/07 06:47:17;;;;;;;10.00;9.15;;;10.30;97.20;;;;;;1714073;28;20198;-69
2023/04/07 06:48:09;;;;;;;9.98;9.07;;;10.40;97.20;;;;;;1709755;28;20582;-69
2023/04/07 06:49:02;;;;;;;9.68;8.68;;;10.40;97.20;;;;;;1710396;28;20203;-69
2023/04/07 06:49:53;;;;;;;9.63;8.63;;;10.40;97.20;;;;;;1708534;28;20210;-69
2023/04/07 06:50:47;;;;;;;9.97;9.07;;;10.40;97.20;;;;;;1707464;28;20222;-69
2023/04/07 06:51:37;;;;;;;9.52;8.68;;;10.40;97.20;;;;;;1707567;29;20237;-69
2023/04/07 06:52:29;;;;;;;9.00;8.20;;;10.40;97.20;;;;;;1707554;29;20298;-69
2023/04/07 06:53:20;;;;;;;9.35;8.52;;;10.40;97.20;;;;;;1707185;29;20210;-69
2023/04/07 06:54:13;;;;;;;10.07;9.07;;;10.40;97.20;;;;;;1707622;29;20218;-69
2023/04/07 06:55:06;;;;;;;11.02;9.93;;;10.40;97.20;;;;;;1707426;29;20206;-69
2023/04/07 06:56:05;;;;;;;10.60;9.60;;;10.50;97.20;;;;;;1707466;29;20281;-69
2023/04/07 06:56:56;;;;;;;10.25;9.35;;;10.50;97.20;;;;;;1707532;29;20692;-69
2023/04/07 06:57:49;;;;;;;10.10;9.20;;;10.50;97.20;;;;;;1707063;29;20589;-69
2023/04/07 06:58:40;;;;;;;10.52;9.40;;;10.50;97.20;;;;;;1712243;28;20198;-69
2023/04/07 06:59:32;;;;;;;10.53;9.53;;;10.50;97.20;;;;;;1710059;28;20195;-69
2023/04/07 07:00:23;;;;;;;9.73;8.85;;;10.60;97.20;;;;;;1710694;28;20454;-69
2023/04/07 07:01:14;;;;;;;10.30;9.40;;;10.60;97.20;;;;;;1707326;29;20207;-69
2023/04/07 07:02:06;;;;;;;9.85;8.93;;;10.60;97.20;;;;;;1707354;29;20449;-69
2023/04/07 07:02:58;;;;;;;10.63;9.52;;;10.70;97.20;;;;;;1706526;29;20692;-69
2023/04/07 07:03:48;;;;;;;10.60;9.57;;;10.70;97.20;;;;;;1707466;29;20637;-69
2023/04/07 07:04:41;;;;;;;9.20;8.40;;;10.70;97.20;;;;;;1707427;28;20210;-69
2023/04/07 07:05:32;;;;;;;10.00;9.00;;;10.80;97.20;;;;;;1707526;29;20222;-69
2023/04/07 07:06:25;;;;;;;9.20;8.40;;;10.80;97.20;;;;;;1707325;29;20199;-69
2023/04/07 07:07:15;;;;;;;9.52;8.63;;;10.80;97.20;;;;;;1707409;29;20541;-69
2023/04/07 07:08:07;;;;;;;10.10;9.20;;;10.90;97.20;;;;;;1707531;28;20253;-69
2023/04/07 07:08:58;;;;;;;9.88;8.98;;;10.90;97.20;;;;;;1712337;28;20248;-69
2023/04/07 07:09:50;;;;;;;9.93;8.95;;;10.90;97.20;;;;;;1711731;28;20281;-69
2023/04/07 07:10:40;;;;;;;9.25;8.45;;;11.00;97.20;;;;;;1713824;28;20229;-69
2023/04/07 07:11:32;;;;;;;9.47;8.47;;;11.00;97.20;;;;;;1714154;28;20221;-69
2023/04/07 07:12:23;;;;;;;10.57;9.68;;;11.00;97.20;;;;;;1713897;28;20659;-68
2023/04/07 07:13:14;;;;;;;9.37;8.47;;;11.00;97.20;;;;;;1713772;28;20421;-68
2023/04/07 07:14:05;;;;;;;9.50;8.70;;;11.00;97.20;;;;;;1714005;28;20214;-68
2023/04/07 07:14:57;;;;;;;9.50;8.60;;;11.00;97.20;;;;;;1714047;28;20216;-68
2023/04/07 07:15:48;;;;;;;9.80;8.90;;;11.10;97.20;;;;;;1713939;28;20619;-68
2023/04/07 07:16:40;;;;;;;10.23;9.23;;;11.10;97.20;;;;;;1713930;28;20205;-68
2023/04/07 07:17:30;;;;;;;9.93;9.05;;;11.10;97.20;;;;;;1709485;28;20233;-68
2023/04/07 07:18:22;;;;;;;10.37;9.37;;;11.10;97.20;;;;;;1709281;28;20202;-68
2023/04/07 07:19:13;;;;;;;10.15;9.25;;;11.10;97.20;;;;;;1710584;28;20226;-68
2023/04/07 07:20:08;;;;;;;10.73;9.70;;;11.10;97.20;;;;;;1713469;28;20198;-68
2023/04/07 07:20:59;;;;;;;9.70;8.80;;;11.20;97.20;;;;;;1713843;28;20265;-68
2023/04/07 07:21:50;;;;;;;9.70;8.80;;;11.20;97.20;;;;;;1713962;28;20205;-68
2023/04/07 07:22:41;;;;;;;9.95;9.05;;;11.20;97.20;;;;;;1713757;28;20209;-68
2023/04/07 07:23:33;;;;;;;10.43;9.50;;;11.20;97.20;;;;;;1714066;28;20206;-68
2023/04/07 07:24:24;;;;;;;10.65;9.73;;;11.20;97.20;;;;;;1714019;28;20213;-68
2023/04/07 07:25:16;;;;;;;10.33;9.20;;;11.20;97.20;;;;;;1714028;28;20202;-68
2023/04/07 07:26:07;;;;;;;9.90;8.90;;;11.20;97.20;;;;;;1713941;28;20206;-68
2023/04/07 07:26:59;;;;;;;9.43;8.50;;;11.20;97.20;;;;;;1714072;28;20202;-68
2023/04/07 07:27:52;;;;;;;9.60;8.70;;;11.20;97.20;;;;;;1711409;28;20210;-68
2023/04/07 07:28:43;;;;;;;10.57;9.10;;;11.20;97.20;;;;;;1707437;28;20190;-68
2023/04/07 07:29:34;;;;;;;8.75;8.02;;;11.30;97.20;;;;;;1709349;28;20214;-68
2023/04/07 07:30:26;;;;;;;9.83;8.93;;;11.30;97.20;;;;;;1713552;28;20206;-68
2023/04/07 07:31:17;;;;;;;8.48;7.68;;;11.30;97.20;;;;;;1713912;28;20230;-68
2023/04/07 07:32:09;;;;;;;9.45;8.45;;;11.30;97.20;;;;;;1713947;28;20206;-68
2023/04/07 07:32:59;;;;;;;9.73;8.82;;;11.40;97.20;;;;;;1713453;28;20253;-68
2023/04/07 07:33:51;;;;;;;10.10;9.10;;;11.40;97.20;;;;;;1710922;28;20202;-68
2023/04/07 07:34:42;;;;;;;9.65;8.77;;;11.50;97.20;;;;;;1707226;29;20596;-68
2023/04/07 07:35:36;;;;;;;9.93;9.03;;;11.50;97.20;;;;;;1707239;29;20206;-68
2023/04/07 07:36:27;;;;;;;11.85;10.65;;;11.50;97.20;;;;;;1707232;29;20593;-68
2023/04/07 07:37:19;;;;;;;10.80;9.70;;;11.60;97.20;;;;;;1707332;29;20577;-68
2023/04/07 07:38:10;;;;;;;9.82;8.88;;;11.60;97.20;;;;;;1707802;28;20203;-68
2023/04/07 07:39:02;;;;;;;10.30;9.27;;;11.60;97.20;;;;;;1711830;28;20197;-68
2023/04/07 07:39:53;;;;;;;10.32;9.32;;;11.60;97.20;;;;;;1708137;28;20215;-68
2023/04/07 07:40:45;;;;;;;9.90;9.00;;;11.70;97.20;;;;;;1707238;29;20227;-68
2023/04/07 07:41:36;;;;;;;9.25;8.45;;;11.70;97.20;;;;;;1707172;29;20458;-68
2023/04/07 07:42:30;;;;;;;11.23;8.90;;;11.80;97.20;;;;;;1707245;29;20219;-68
2023/04/07 07:43:21;;;;;;;9.68;8.77;;;11.80;97.20;;;;;;1706842;29;20427;-68
2023/04/07 07:44:12;;;;;;;9.17;8.27;;;11.90;97.20;;;;;;1707340;28;20702;-68
2023/04/07 07:45:04;;;;;;;8.55;7.85;;;11.90;97.20;;;;;;1706874;29;20211;-68
2023/04/07 07:45:56;;;;;;;8.40;7.60;;;11.90;97.20;;;;;;1707012;29;20285;-68
2023/04/07 07:46:47;;;;;;;9.38;8.57;;;12.00;97.20;;;;;;1707297;29;20589;-68
2023/04/07 07:47:38;;;;;;;8.35;7.65;;;12.10;97.20;;;;;;1706877;29;20221;-69
2023/04/07 07:48:30;;;;;;;11.30;9.20;;;12.10;97.20;;;;;;1710547;28;20204;-68
2023/04/07 07:49:20;;;;;;;9.60;8.70;;;12.10;97.20;;;;;;1709562;28;20591;-68
2023/04/07 07:50:12;;;;;;;9.53;8.63;;;12.10;97.20;;;;;;1713816;28;20205;-68
2023/04/07 07:51:05;;;;;;;9.90;8.98;;;12.20;97.20;;;;;;1706802;28;20578;-69
2023/04/07 07:51:58;;;;;;;10.68;9.75;;;12.30;97.20;;;;;;1706969;29;20214;-68
2023/04/07 07:52:49;;;;;;;10.05;9.20;;;12.30;97.20;;;;;;1706771;29;20226;-68
2023/04/07 07:53:41;;;;;;;9.53;8.60;;;12.30;97.20;;;;;;1707086;29;20210;-68
2023/04/07 07:54:31;;;;;;;9.73;8.52;;;12.30;97.20;;;;;;1707089;29;20213;-68
2023/04/07 07:55:23;;;;;;;9.67;8.77;;;12.40;97.20;;;;;;1707079;28;20669;-68
2023/04/07 07:56:14;;;;;;;8.65;7.85;;;12.50;97.20;;;;;;1707145;29;20230;-70
2023/04/07 07:57:06;;;;;;;9.53;8.63;;;12.50;97.20;;;;;;1707134;29;20206;-68
2023/04/07 07:57:56;;;;;;;9.23;8.40;;;12.60;97.20;;;;;;1706797;28;20457;-68
2023/04/07 07:58:48;;;;;;;9.77;8.90;;;12.70;97.20;;;;;;1712634;28;20200;-68
2023/04/07 07:59:39;;;;;;;9.52;8.70;;;12.70;97.20;;;;;;1707599;28;20669;-69
2023/04/07 08:00:31;;;;;;;10.68;9.68;;;12.80;97.20;;;;;;1706770;29;20254;-68
2023/04/07 08:01:21;;;;;;;8.90;8.10;;;12.80;97.20;;;;;;1706077;29;20233;-69
2023/04/07 08:02:13;;;;;;;8.87;7.97;;;12.80;97.20;;;;;;1707180;29;20249;-69
2023/04/07 08:03:04;;;;;;;8.35;7.63;;;12.90;97.20;;;;;;1706778;29;20212;-68
2023/04/07 08:03:56;;;;;;;9.67;8.77;;;12.90;97.20;;;;;;1707134;28;20220;-68
2023/04/07 08:04:46;;;;;;;9.13;8.13;;;13.00;97.20;;;;;;1707104;29;20218;-68
2023/04/07 08:05:38;;;;;;;8.23;7.30;;;13.00;97.20;;;;;;1706940;29;20207;-69
2023/04/07 08:06:30;;;;;;;8.43;7.70;;;13.00;97.20;;;;;;1703761;29;20213;-68
2023/04/07 08:07:22;;;;;;;8.73;7.93;;;13.10;97.20;;;;;;1706124;29;20259;-68
2023/04/07 08:08:13;;;;;;;8.70;8.00;;;13.20;97.20;;;;;;1707909;28;20202;-68
2023/04/07 08:09:05;;;;;;;8.13;7.33;;;13.20;97.20;;;;;;1711113;28;20202;-68
2023/04/07 08:09:56;;;;;;;8.95;8.07;;;13.30;97.20;;;;;;1707801;28;20245;-68
2023/04/07 08:10:48;;;;;;;9.30;8.40;;;13.30;97.20;;;;;;1706748;29;20249;-69
2023/04/07 08:11:38;;;;;;;9.20;8.30;;;13.30;97.20;;;;;;1704465;29;20652;-68
2023/04/07 08:12:30;;;;;;;8.83;8.03;;;13.40;97.20;;;;;;1705796;29;20657;-69
2023/04/07 08:13:21;;;;;;;9.25;8.35;;;13.40;97.20;;;;;;1705882;29;20696;-69
2023/04/07 08:14:12;;;;;;;10.00;9.00;;;13.50;97.20;;;;;;1706781;29;20807;-69
2023/04/07 08:15:04;;;;;;;9.35;8.38;;;13.50;97.20;;;;;;1706851;29;20202;-69
2023/04/07 08:15:56;;;;;;;8.93;8.13;;;13.60;97.20;;;;;;1706797;28;20194;-69
2023/04/07 08:16:47;;;;;;;9.10;8.15;;;13.70;97.20;;;;;;1706780;29;20206;-69
2023/04/07 08:17:39;;;;;;;9.37;8.47;;;13.70;97.20;;;;;;1706508;29;20727;-69
2023/04/07 08:18:30;;;;;;;8.88;8.18;;;13.80;97.20;;;;;;1707956;28;20532;-69
2023/04/07 08:19:22;;;;;;;8.27;7.57;;;13.80;97.20;;;;;;1707119;28;20195;-69
2023/04/07 08:20:15;;;;;;;7.85;7.13;;;13.80;97.20;;;;;;1713670;28;20547;-69
2023/04/07 08:21:07;;;;;;;7.90;7.22;;;13.80;97.20;;;;;;1713642;28;20205;-69
2023/04/07 08:22:00;;;;;;;8.38;7.57;;;13.80;97.20;;;;;;1713769;28;20260;-70
2023/04/07 08:22:51;;;;;;;10.93;7.72;;;13.80;97.20;;;;;;1713371;28;20210;-69
2023/04/07 08:23:43;;;;;;;8.30;7.50;;;13.70;97.20;;;;;;1713619;28;20220;-69
2023/04/07 08:24:34;;;;;;;7.88;7.07;;;13.70;97.20;;;;;;1713577;28;20244;-69
2023/04/07 08:25:25;;;;;;;7.70;7.00;;;13.70;97.20;;;;;;1706620;28;20214;-69
2023/04/07 08:26:16;;;;;;;7.90;7.20;;;13.70;97.20;;;;;;1703863;29;20203;-68
2023/04/07 08:27:08;;;;;;;7.47;6.77;;;13.80;97.20;;;;;;1700243;29;20213;-69
2023/04/07 08:27:59;;;;;;;7.45;6.85;;;13.90;97.20;;;;;;1703029;28;20202;-68
2023/04/07 08:28:51;;;;;;;6.80;6.20;;;14.10;97.20;;;;;;1712231;28;20204;-68
2023/04/07 08:29:42;;;;;;;7.78;6.70;;;14.20;97.20;;;;;;1709271;28;20665;-68
2023/04/07 08:30:33;;;;;;;7.13;6.53;;;14.40;97.20;;;;;;1713465;28;20991;-68
2023/04/07 08:31:25;;;;;;;8.15;7.32;;;14.60;97.20;;;;;;1713656;28;20226;-68
2023/04/07 08:32:16;;;;;;;6.60;6.00;;;14.80;97.20;;;;;;1713573;28;20198;-68
2023/04/07 08:33:07;;;;;;;6.80;6.20;;;14.90;97.20;;;;;;1713364;28;20253;-68
2023/04/07 08:33:59;;;;;;;7.67;6.90;;;15.00;97.20;;;;;;1713625;28;20225;-68
2023/04/07 08:34:50;;;;;;;9.73;7.50;;;15.00;97.20;;;;;;1703024;28;20206;-70
2023/04/07 08:35:42;;;;;;;7.32;6.60;;;15.10;97.20;;;;;;1700306;29;20353;-68
2023/04/07 08:36:33;;;;;;;7.70;7.00;;;15.10;97.20;;;;;;1700359;29;20242;-68
2023/04/07 08:37:26;;;;;;;7.65;5.68;;;15.20;97.20;;;;;;1700046;29;20666;-69
2023/04/07 08:38:17;;;;;;;7.93;7.03;;;15.30;97.20;;;;;;1707818;28;20205;-68
2023/04/07 08:39:08;;;;;;;6.70;6.07;;;15.40;97.20;;;;;;1710748;28;20210;-68
2023/04/07 08:40:00;;;;;;;7.28;6.68;;;15.60;97.20;;;;;;1711310;28;20201;-67
2023/04/07 08:40:58;;;;;;;7.28;6.05;;;15.70;97.20;;;;;;1713428;28;20225;-67
2023/04/07 08:41:50;;;;;;;6.88;5.85;;;15.90;97.20;;;;;;1707654;28;20195;-67
2023/04/07 08:42:46;;;;;;;6.25;5.65;;;16.10;97.20;;;;;;1706622;29;20202;-67
2023/04/07 08:43:38;;;;;;;6.95;6.22;;;16.20;97.20;;;;;;1705252;29;20207;-67
2023/04/07 08:44:30;;;;;;;6.55;6.05;;;16.30;97.20;;;;;;1702302;29;20203;-67
2023/04/07 08:45:21;;;;;;;6.38;5.78;;;16.40;97.20;;;;;;1699976;29;20246;-67
2023/04/07 08:46:14;;;;;;;6.30;5.80;;;16.50;97.20;;;;;;1701304;29;20203;-67
2023/04/07 08:47:07;;;;;;;7.20;6.47;;;16.60;97.20;;;;;;1700358;29;20479;-67
2023/04/07 08:48:03;;;;;;;7.18;6.00;;;16.60;97.20;;;;;;1703704;28;20285;-67
2023/04/07 08:48:55;;;;;;;7.85;5.90;;;16.70;97.20;;;;;;1700222;29;20275;-67
2023/04/07 08:49:51;;;;;;;7.07;6.38;;;16.70;97.20;;;;;;1710795;28;20225;-67
2023/04/07 08:50:44;;;;;;;6.80;6.20;;;16.70;97.20;;;;;;1713253;28;20254;-67
2023/04/07 08:51:38;;;;;;;6.95;6.35;;;16.70;97.20;;;;;;1703587;28;20707;-67
2023/04/07 08:52:33;;;;;;;7.20;6.50;;;16.70;97.20;;;;;;1700182;29;20271;-67
2023/04/07 08:53:32;;;;;;;5.88;5.38;;;16.70;97.20;;;;;;1700048;29;20226;-67
2023/04/07 08:54:23;;;;;;;7.47;6.10;;;16.70;97.20;;;;;;1700132;29;20211;-66
2023/04/07 08:55:15;;;;;;;6.40;5.70;;;16.80;97.20;;;;;;1700244;29;20203;-66
2023/04/07 08:56:07;;;;;;;5.57;5.07;;;16.90;97.20;;;;;;1700043;29;20946;-66
2023/04/07 08:57:00;;;;;;;7.07;6.38;;;17.10;97.20;;;;;;1698926;29;20203;-66
2023/04/07 08:57:52;;;;;;;7.22;6.53;;;17.20;97.20;;;;;;1701192;28;20215;-67
2023/04/07 08:58:44;;;;;;;6.50;5.90;;;17.40;97.20;;;;;;1711802;28;20202;-66
2023/04/07 08:59:35;;;;;;;6.90;6.20;;;17.50;97.20;;;;;;1707832;28;20202;-67
2023/04/07 09:00:28;;;;;;;7.25;6.55;;;17.70;97.20;;;;;;1706588;29;20230;-67
2023/04/07 09:01:19;;;;;;;7.85;6.80;;;17.80;97.20;;;;;;1706744;29;20198;-67
2023/04/07 09:02:11;;;;;;;8.27;6.32;;;18.00;97.20;;;;;;1706863;29;20202;-68
2023/04/07 09:03:03;;;;;;;7.28;6.40;;;18.10;97.20;;;;;;1706409;29;20230;-67
2023/04/07 09:03:57;;;;;;;6.70;6.00;;;18.30;97.20;;;;;;1706758;29;20190;-68
2023/04/07 09:04:48;;;;;;;6.82;6.25;;;18.50;97.20;;;;;;1704024;29;20694;-67
2023/04/07 09:05:40;;;;;;;6.20;5.70;;;18.70;97.20;;;;;;1700066;29;20207;-67
2023/04/07 09:06:31;;;;;;;7.43;6.72;;;18.80;97.20;;;;;;1699088;29;20455;-67
2023/04/07 09:07:23;;;;;;;6.82;6.22;;;18.90;97.20;;;;;;1700003;29;20246;-66
2023/04/07 09:08:15;;;;;;;6.97;6.32;;;19.00;97.20;;;;;;1706763;28;20205;-67
2023/04/07 09:09:07;;;;;;;6.88;6.25;;;19.10;97.20;;;;;;1710629;28;20674;-67
2023/04/07 09:09:58;;;;;;;6.80;6.20;;;19.20;97.20;;;;;;1704142;28;20203;-68
2023/04/07 09:10:50;;;;;;;7.30;6.70;;;19.20;97.20;;;;;;1699931;29;20247;-68
2023/04/07 09:11:41;;;;;;;6.97;6.30;;;19.10;97.20;;;;;;1700161;29;20207;-67
2023/04/07 09:12:33;;;;;;;7.83;6.67;;;19.00;97.20;;;;;;1704433;29;20200;-67
2023/04/07 09:13:24;;;;;;;7.38;6.35;;;18.90;97.20;;;;;;1706635;29;20257;-66
2023/04/07 09:14:17;;;;;;;8.10;7.00;;;18.80;97.20;;;;;;1706683;29;20265;-68
2023/04/07 09:15:08;;;;;;;6.85;6.15;;;18.60;97.20;;;;;;1703027;29;20214;-67
2023/04/07 09:16:03;;;;;;;7.53;6.82;;;18.30;97.20;;;;;;1699944;29;20203;-68
2023/04/07 09:16:54;;;;;;;6.78;6.18;;;18.10;97.20;;;;;;1700146;29;20207;-68
2023/04/07 09:17:46;;;;;;;6.35;5.80;;;17.80;97.20;;;;;;1701601;29;20239;-67
2023/04/07 09:18:37;;;;;;;7.25;6.55;;;17.50;97.20;;;;;;1711225;28;20202;-67
2023/04/07 09:19:29;;;;;;;6.40;5.90;;;17.20;97.20;;;;;;1707559;28;20195;-67
2023/04/07 09:20:20;;;;;;;7.53;6.75;;;17.00;97.20;;;;;;1705388;29;20202;-67
2023/04/07 09:21:12;;;;;;;7.13;6.13;;;16.70;97.20;;;;;;1706308;29;20195;-67
2023/04/07 09:22:03;;;;;;;6.65;6.03;;;16.50;97.20;;;;;;1706254;29;20237;-67
2023/04/07 09:22:55;;;;;;;6.27;5.63;;;16.40;97.20;;;;;;1705709;29;20202;-67
2023/04/07 09:23:47;;;;;;;6.65;5.95;;;16.20;97.20;;;;;;1705260;29;20338;-67
2023/04/07 09:24:39;;;;;;;6.35;5.65;;;16.10;97.20;;;;;;1702774;29;20225;-69
2023/04/07 09:25:31;;;;;;;7.10;6.47;;;15.90;97.20;;;;;;1702413;29;20207;-70
2023/04/07 09:26:24;;;;;;;7.13;6.53;;;15.80;97.20;;;;;;1706247;29;20195;-67
2023/04/07 09:27:17;;;;;;;7.68;6.95;;;15.60;97.20;;;;;;1702788;29;20203;-67
2023/04/07 09:28:09;;;;;;;7.22;6.55;;;15.50;97.20;;;;;;1706609;28;20201;-67
2023/04/07 09:29:01;;;;;;;6.85;6.15;;;15.40;97.20;;;;;;1705968;29;20335;-67